sensor_id;sensor_type;location;lat;lon;timestamp;temperature;humidity
76263;DHT22;65080;50.908;6.916;2023-04-03T00:01:18;7.10;56.90
76263;DHT22;65080;50.908;6.916;2023-04-03T00:03:47;7.20;56.80
76263;DHT22;65080;50.908;6.916;2023-04-03T00:06:15;7.20;56.90
76263;DHT22;65080;50.908;6.916;2023-04-03T00:08:45;7.20;56.90
76263;DHT22;65080;50.908;6.916;2023-04-03T00:11:13;7.20;57.00
76263;DHT22;65080;50.908;6.916;2023-04-03T00:13:42;7.20;57.50
76263;DHT22;65080;50.908;6.916;2023-04-03T00:16:11;7.20;57.00
76263;DHT22;65080;50.908;6.916;2023-04-03T00:18:40;7.10;57.00
76263;DHT22;65080;50.908;6.916;2023-04-03T00:21:10;7.10;57.20
76263;DHT22;65080;50.908;6.916;2023-04-03T00:23:39;7.20;57.30
76263;DHT22;65080;50.908;6.916;2023-04-03T00:26:09;7.10;57.30
76263;DHT22;65080;50.908;6.916;2023-04-03T00:28:37;7.20;57.50
76263;DHT22;65080;50.908;6.916;2023-04-03T00:31:06;7.10;57.50
76263;DHT22;65080;50.908;6.916;2023-04-03T00:33:34;7.10;57.50
76263;DHT22;65080;50.908;6.916;2023-04-03T00:36:06;7.10;57.40
76263;DHT22;65080;50.908;6.916;2023-04-03T00:38:34;7.10;57.40
76263;DHT22;65080;50.908;6.916;2023-04-03T00:41:03;7.10;57.40
76263;DHT22;65080;50.908;6.916;2023-04-03T00:43:33;7.10;57.40
76263;DHT22;65080;50.908;6.916;2023-04-03T00:46:01;7.10;57.40
76263;DHT22;65080;50.908;6.916;2023-04-03T00:48:32;7.10;57.40
76263;DHT22;65080;50.908;6.916;2023-04-03T00:51:01;7.00;57.20
76263;DHT22;65080;50.908;6.916;2023-04-03T00:53:32;7.00;57.10
76263;DHT22;65080;50.908;6.916;2023-04-03T00:56:01;7.10;57.10
76263;DHT22;65080;50.908;6.916;2023-04-03T00:58:38;7.00;57.10
76263;DHT22;65080;50.908;6.916;2023-04-03T01:01:12;7.00;57.00
76263;DHT22;65080;50.908;6.916;2023-04-03T01:03:43;7.00;57.00
76263;DHT22;65080;50.908;6.916;2023-04-03T01:06:11;7.00;57.50
76263;DHT22;65080;50.908;6.916;2023-04-03T01:08:41;6.90;56.90
76263;DHT22;65080;50.908;6.916;2023-04-03T01:11:09;6.90;56.60
76263;DHT22;65080;50.908;6.916;2023-04-03T01:13:38;7.00;56.70
76263;DHT22;65080;50.908;6.916;2023-04-03T01:16:07;6.90;56.50
76263;DHT22;65080;50.908;6.916;2023-04-03T01:18:38;6.90;56.40
76263;DHT22;65080;50.908;6.916;2023-04-03T01:21:42;6.80;56.10
76263;DHT22;65080;50.908;6.916;2023-04-03T01:24:24;6.80;55.90
76263;DHT22;65080;50.908;6.916;2023-04-03T01:26:54;6.80;55.90
76263;DHT22;65080;50.908;6.916;2023-04-03T01:29:24;6.80;55.80
76263;DHT22;65080;50.908;6.916;2023-04-03T01:31:55;6.80;55.80
76263;DHT22;65080;50.908;6.916;2023-04-03T01:34:25;6.70;55.70
76263;DHT22;65080;50.908;6.916;2023-04-03T01:36:54;6.70;55.60
76263;DHT22;65080;50.908;6.916;2023-04-03T01:39:22;6.70;55.60
76263;DHT22;65080;50.908;6.916;2023-04-03T01:41:51;6.70;55.60
76263;DHT22;65080;50.908;6.916;2023-04-03T01:44:19;6.70;55.70
76263;DHT22;65080;50.908;6.916;2023-04-03T01:46:47;6.60;55.60
76263;DHT22;65080;50.908;6.916;2023-04-03T01:49:17;6.60;55.50
76263;DHT22;65080;50.908;6.916;2023-04-03T01:51:45;6.60;55.50
76263;DHT22;65080;50.908;6.916;2023-04-03T01:54:13;6.60;55.40
76263;DHT22;65080;50.908;6.916;2023-04-03T01:56:41;6.50;55.30
76263;DHT22;65080;50.908;6.916;2023-04-03T01:59:10;6.50;55.20
76263;DHT22;65080;50.908;6.916;2023-04-03T02:01:38;6.50;55.30
76263;DHT22;65080;50.908;6.916;2023-04-03T02:04:06;6.50;55.30
76263;DHT22;65080;50.908;6.916;2023-04-03T02:06:36;6.50;55.30
76263;DHT22;65080;50.908;6.916;2023-04-03T02:09:04;6.40;55.20
76263;DHT22;65080;50.908;6.916;2023-04-03T02:11:33;6.40;55.30
76263;DHT22;65080;50.908;6.916;2023-04-03T02:14:02;6.40;55.40
76263;DHT22;65080;50.908;6.916;2023-04-03T02:16:30;6.40;55.50
76263;DHT22;65080;50.908;6.916;2023-04-03T02:18:58;6.40;55.50
76263;DHT22;65080;50.908;6.916;2023-04-03T02:21:26;6.40;55.60
76263;DHT22;65080;50.908;6.916;2023-04-03T02:23:56;6.30;55.50
76263;DHT22;65080;50.908;6.916;2023-04-03T02:26:24;6.30;55.60
76263;DHT22;65080;50.908;6.916;2023-04-03T02:28:53;6.30;55.70
76263;DHT22;65080;50.908;6.916;2023-04-03T02:31:21;6.30;55.70
76263;DHT22;65080;50.908;6.916;2023-04-03T02:33:50;6.20;55.70
76263;DHT22;65080;50.908;6.916;2023-04-03T02:36:18;6.20;55.70
76263;DHT22;65080;50.908;6.916;2023-04-03T02:38:47;6.10;55.80
76263;DHT22;65080;50.908;6.916;2023-04-03T02:41:16;6.10;55.80
76263;DHT22;65080;50.908;6.916;2023-04-03T02:43:44;6.00;55.80
76263;DHT22;65080;50.908;6.916;2023-04-03T02:46:13;5.90;55.80
76263;DHT22;65080;50.908;6.916;2023-04-03T02:48:42;5.80;55.90
76263;DHT22;65080;50.908;6.916;2023-04-03T02:51:10;5.70;56.00
76263;DHT22;65080;50.908;6.916;2023-04-03T02:53:38;5.70;56.20
76263;DHT22;65080;50.908;6.916;2023-04-03T02:56:07;5.60;56.30
76263;DHT22;65080;50.908;6.916;2023-04-03T02:58:36;5.50;56.40
76263;DHT22;65080;50.908;6.916;2023-04-03T03:01:05;5.40;56.50
76263;DHT22;65080;50.908;6.916;2023-04-03T03:03:33;5.30;56.70
76263;DHT22;65080;50.908;6.916;2023-04-03T03:06:02;5.20;56.90
76263;DHT22;65080;50.908;6.916;2023-04-03T03:08:31;5.10;57.00
76263;DHT22;65080;50.908;6.916;2023-04-03T03:10:59;5.10;57.20
76263;DHT22;65080;50.908;6.916;2023-04-03T03:13:27;5.00;57.30
76263;DHT22;65080;50.908;6.916;2023-04-03T03:15:57;4.90;57.50
76263;DHT22;65080;50.908;6.916;2023-04-03T03:18:26;4.90;57.70
76263;DHT22;65080;50.908;6.916;2023-04-03T03:20:56;4.90;57.90
76263;DHT22;65080;50.908;6.916;2023-04-03T03:23:26;4.80;58.10
76263;DHT22;65080;50.908;6.916;2023-04-03T03:25:56;4.70;58.20
76263;DHT22;65080;50.908;6.916;2023-04-03T03:28:24;4.70;58.30
76263;DHT22;65080;50.908;6.916;2023-04-03T03:30:52;4.70;58.40
76263;DHT22;65080;50.908;6.916;2023-04-03T03:33:22;4.70;58.60
76263;DHT22;65080;50.908;6.916;2023-04-03T03:35:52;4.70;58.70
76263;DHT22;65080;50.908;6.916;2023-04-03T03:38:20;4.70;58.70
76263;DHT22;65080;50.908;6.916;2023-04-03T03:40:49;4.60;58.70
76263;DHT22;65080;50.908;6.916;2023-04-03T03:43:18;4.60;58.90
76263;DHT22;65080;50.908;6.916;2023-04-03T03:45:50;4.70;59.00
76263;DHT22;65080;50.908;6.916;2023-04-03T03:48:20;4.70;58.90
76263;DHT22;65080;50.908;6.916;2023-04-03T03:50:50;4.80;58.90
76263;DHT22;65080;50.908;6.916;2023-04-03T03:53:18;4.80;58.70
76263;DHT22;65080;50.908;6.916;2023-04-03T03:55:46;4.90;58.60
76263;DHT22;65080;50.908;6.916;2023-04-03T03:58:14;4.90;58.50
76263;DHT22;65080;50.908;6.916;2023-04-03T04:00:43;4.90;58.90
76263;DHT22;65080;50.908;6.916;2023-04-03T04:03:11;4.90;58.30
76263;DHT22;65080;50.908;6.916;2023-04-03T04:05:39;5.00;58.30
76263;DHT22;65080;50.908;6.916;2023-04-03T04:08:09;5.00;58.20
76263;DHT22;65080;50.908;6.916;2023-04-03T04:10:37;5.00;58.20
76263;DHT22;65080;50.908;6.916;2023-04-03T04:13:05;5.10;58.10
76263;DHT22;65080;50.908;6.916;2023-04-03T04:15:34;5.10;58.00
76263;DHT22;65080;50.908;6.916;2023-04-03T04:18:03;5.10;58.00
76263;DHT22;65080;50.908;6.916;2023-04-03T04:20:31;5.10;57.90
76263;DHT22;65080;50.908;6.916;2023-04-03T04:22:59;5.20;57.90
76263;DHT22;65080;50.908;6.916;2023-04-03T04:25:29;5.20;57.80
76263;DHT22;65080;50.908;6.916;2023-04-03T04:27:57;5.10;57.70
76263;DHT22;65080;50.908;6.916;2023-04-03T04:30:25;5.20;57.70
76263;DHT22;65080;50.908;6.916;2023-04-03T04:32:54;5.20;57.80
76263;DHT22;65080;50.908;6.916;2023-04-03T04:35:23;5.10;57.60
76263;DHT22;65080;50.908;6.916;2023-04-03T04:37:51;5.10;57.70
76263;DHT22;65080;50.908;6.916;2023-04-03T04:40:20;5.10;57.60
76263;DHT22;65080;50.908;6.916;2023-04-03T04:42:50;5.10;57.60
76263;DHT22;65080;50.908;6.916;2023-04-03T04:45:18;5.10;57.60
76263;DHT22;65080;50.908;6.916;2023-04-03T04:47:46;5.10;57.60
76263;DHT22;65080;50.908;6.916;2023-04-03T04:50:15;5.10;57.60
76263;DHT22;65080;50.908;6.916;2023-04-03T04:52:43;5.10;57.50
76263;DHT22;65080;50.908;6.916;2023-04-03T04:55:11;5.10;57.50
76263;DHT22;65080;50.908;6.916;2023-04-03T04:57:39;5.10;57.50
76263;DHT22;65080;50.908;6.916;2023-04-03T05:00:10;5.10;57.50
76263;DHT22;65080;50.908;6.916;2023-04-03T05:02:39;5.10;57.50
76263;DHT22;65080;50.908;6.916;2023-04-03T05:05:08;5.10;57.50
76263;DHT22;65080;50.908;6.916;2023-04-03T05:07:36;5.10;57.60
76263;DHT22;65080;50.908;6.916;2023-04-03T05:10:06;5.10;57.40
76263;DHT22;65080;50.908;6.916;2023-04-03T05:12:34;5.10;57.50
76263;DHT22;65080;50.908;6.916;2023-04-03T05:15:03;5.00;57.50
76263;DHT22;65080;50.908;6.916;2023-04-03T05:17:32;5.10;57.60
76263;DHT22;65080;50.908;6.916;2023-04-03T05:20:01;5.00;57.50
76263;DHT22;65080;50.908;6.916;2023-04-03T05:22:30;5.00;57.50
76263;DHT22;65080;50.908;6.916;2023-04-03T05:24:58;5.00;57.40
76263;DHT22;65080;50.908;6.916;2023-04-03T05:27:26;5.00;57.50
76263;DHT22;65080;50.908;6.916;2023-04-03T05:29:56;5.00;57.50
76263;DHT22;65080;50.908;6.916;2023-04-03T05:32:24;5.00;57.50
76263;DHT22;65080;50.908;6.916;2023-04-03T05:34:55;5.00;57.50
76263;DHT22;65080;50.908;6.916;2023-04-03T05:37:26;5.00;57.40
76263;DHT22;65080;50.908;6.916;2023-04-03T05:39:55;5.00;57.40
76263;DHT22;65080;50.908;6.916;2023-04-03T05:42:23;5.00;57.40
76263;DHT22;65080;50.908;6.916;2023-04-03T05:44:51;5.00;57.40
76263;DHT22;65080;50.908;6.916;2023-04-03T05:47:19;5.00;57.40
76263;DHT22;65080;50.908;6.916;2023-04-03T05:49:48;5.00;57.50
76263;DHT22;65080;50.908;6.916;2023-04-03T05:52:22;5.00;57.50
76263;DHT22;65080;50.908;6.916;2023-04-03T05:54:50;5.00;57.50
76263;DHT22;65080;50.908;6.916;2023-04-03T05:57:19;5.00;57.40
76263;DHT22;65080;50.908;6.916;2023-04-03T05:59:47;5.10;57.50
76263;DHT22;65080;50.908;6.916;2023-04-03T06:02:18;5.10;57.40
76263;DHT22;65080;50.908;6.916;2023-04-03T06:04:48;5.10;57.40
76263;DHT22;65080;50.908;6.916;2023-04-03T06:07:20;5.20;57.40
76263;DHT22;65080;50.908;6.916;2023-04-03T06:09:50;5.20;57.40
76263;DHT22;65080;50.908;6.916;2023-04-03T06:12:19;5.20;57.30
76263;DHT22;65080;50.908;6.916;2023-04-03T06:14:48;5.30;57.20
76263;DHT22;65080;50.908;6.916;2023-04-03T06:17:17;5.30;57.10
76263;DHT22;65080;50.908;6.916;2023-04-03T06:19:46;5.40;57.10
76263;DHT22;65080;50.908;6.916;2023-04-03T06:22:14;5.40;57.10
76263;DHT22;65080;50.908;6.916;2023-04-03T06:24:44;5.50;57.10
76263;DHT22;65080;50.908;6.916;2023-04-03T06:27:12;5.50;56.90
76263;DHT22;65080;50.908;6.916;2023-04-03T06:29:41;5.60;56.80
76263;DHT22;65080;50.908;6.916;2023-04-03T06:32:10;5.60;56.80
76263;DHT22;65080;50.908;6.916;2023-04-03T06:34:38;5.60;56.60
76263;DHT22;65080;50.908;6.916;2023-04-03T06:37:06;5.60;56.50
76263;DHT22;65080;50.908;6.916;2023-04-03T06:39:34;5.70;56.40
76263;DHT22;65080;50.908;6.916;2023-04-03T06:42:04;5.80;56.40
76263;DHT22;65080;50.908;6.916;2023-04-03T06:44:32;5.80;56.30
76263;DHT22;65080;50.908;6.916;2023-04-03T06:47:02;5.90;56.30
76263;DHT22;65080;50.908;6.916;2023-04-03T06:49:30;6.00;56.30
76263;DHT22;65080;50.908;6.916;2023-04-03T06:51:58;6.00;56.10
76263;DHT22;65080;50.908;6.916;2023-04-03T06:54:28;6.10;56.20
76263;DHT22;65080;50.908;6.916;2023-04-03T06:56:57;6.20;56.20
76263;DHT22;65080;50.908;6.916;2023-04-03T06:59:28;6.20;56.00
76263;DHT22;65080;50.908;6.916;2023-04-03T07:01:57;6.30;55.70
76263;DHT22;65080;50.908;6.916;2023-04-03T07:04:26;6.40;55.60
76263;DHT22;65080;50.908;6.916;2023-04-03T07:06:54;6.50;55.50
76263;DHT22;65080;50.908;6.916;2023-04-03T07:09:23;6.50;55.20
76263;DHT22;65080;50.908;6.916;2023-04-03T07:11:51;6.60;55.10
76263;DHT22;65080;50.908;6.916;2023-04-03T07:14:19;6.60;54.90
76263;DHT22;65080;50.908;6.916;2023-04-03T07:16:49;6.70;54.70
76263;DHT22;65080;50.908;6.916;2023-04-03T07:19:17;6.70;54.60
76263;DHT22;65080;50.908;6.916;2023-04-03T07:21:46;6.70;54.40
76263;DHT22;65080;50.908;6.916;2023-04-03T07:24:14;6.80;54.40
76263;DHT22;65080;50.908;6.916;2023-04-03T07:26:43;6.80;54.20
76263;DHT22;65080;50.908;6.916;2023-04-03T07:29:12;6.90;54.20
76263;DHT22;65080;50.908;6.916;2023-04-03T07:31:41;6.90;54.10
76263;DHT22;65080;50.908;6.916;2023-04-03T07:34:10;7.00;53.90
76263;DHT22;65080;50.908;6.916;2023-04-03T07:36:39;6.90;53.50
76263;DHT22;65080;50.908;6.916;2023-04-03T07:39:08;7.00;53.30
76263;DHT22;65080;50.908;6.916;2023-04-03T07:41:36;7.00;53.20
76263;DHT22;65080;50.908;6.916;2023-04-03T07:44:05;7.10;52.90
76263;DHT22;65080;50.908;6.916;2023-04-03T07:46:36;7.10;52.70
76263;DHT22;65080;50.908;6.916;2023-04-03T07:49:05;7.10;52.50
76263;DHT22;65080;50.908;6.916;2023-04-03T07:51:34;7.20;52.40
76263;DHT22;65080;50.908;6.916;2023-04-03T07:54:03;7.20;52.30
76263;DHT22;65080;50.908;6.916;2023-04-03T07:56:31;7.20;52.20
76263;DHT22;65080;50.908;6.916;2023-04-03T07:59:00;7.20;51.90
76263;DHT22;65080;50.908;6.916;2023-04-03T08:01:28;7.30;51.80
76263;DHT22;65080;50.908;6.916;2023-04-03T08:03:59;7.30;51.70
76263;DHT22;65080;50.908;6.916;2023-04-03T08:06:28;7.20;51.50
76263;DHT22;65080;50.908;6.916;2023-04-03T08:09:13;7.20;51.30
76263;DHT22;65080;50.908;6.916;2023-04-03T08:11:42;7.20;51.40
76263;DHT22;65080;50.908;6.916;2023-04-03T08:14:11;7.30;51.50
76263;DHT22;65080;50.908;6.916;2023-04-03T08:16:43;7.30;51.30
76263;DHT22;65080;50.908;6.916;2023-04-03T08:19:12;7.30;51.20
76263;DHT22;65080;50.908;6.916;2023-04-03T08:21:52;7.30;51.00
76263;DHT22;65080;50.908;6.916;2023-04-03T08:24:22;7.40;51.00
76263;DHT22;65080;50.908;6.916;2023-04-03T08:26:50;7.40;50.80
76263;DHT22;65080;50.908;6.916;2023-04-03T08:29:18;7.50;50.80
76263;DHT22;65080;50.908;6.916;2023-04-03T08:31:48;7.50;50.70
76263;DHT22;65080;50.908;6.916;2023-04-03T08:34:17;7.50;50.60
76263;DHT22;65080;50.908;6.916;2023-04-03T08:36:46;7.60;50.70
76263;DHT22;65080;50.908;6.916;2023-04-03T08:39:14;7.70;50.70
76263;DHT22;65080;50.908;6.916;2023-04-03T08:41:45;7.70;50.30
76263;DHT22;65080;50.908;6.916;2023-04-03T08:44:19;7.70;50.10
76263;DHT22;65080;50.908;6.916;2023-04-03T08:47:01;7.70;50.00
76263;DHT22;65080;50.908;6.916;2023-04-03T08:49:33;7.70;50.00
76263;DHT22;65080;50.908;6.916;2023-04-03T08:52:04;7.70;50.00
76263;DHT22;65080;50.908;6.916;2023-04-03T08:54:44;7.80;49.90
76263;DHT22;65080;50.908;6.916;2023-04-03T08:57:18;7.80;49.80
76263;DHT22;65080;50.908;6.916;2023-04-03T08:59:48;7.90;49.70
76263;DHT22;65080;50.908;6.916;2023-04-03T09:02:24;8.00;49.60
76263;DHT22;65080;50.908;6.916;2023-04-03T09:04:54;8.10;49.20
76263;DHT22;65080;50.908;6.916;2023-04-03T09:07:30;8.10;49.00
76263;DHT22;65080;50.908;6.916;2023-04-03T09:10:01;8.10;48.70
76263;DHT22;65080;50.908;6.916;2023-04-03T09:12:37;8.00;48.40
76263;DHT22;65080;50.908;6.916;2023-04-03T09:15:14;8.10;48.30
76263;DHT22;65080;50.908;6.916;2023-04-03T09:18:00;8.10;48.20
76263;DHT22;65080;50.908;6.916;2023-04-03T09:20:39;8.20;48.00
76263;DHT22;65080;50.908;6.916;2023-04-03T09:23:18;8.20;47.60
76263;DHT22;65080;50.908;6.916;2023-04-03T09:25:47;8.30;47.70
76263;DHT22;65080;50.908;6.916;2023-04-03T09:28:18;8.40;47.70
76263;DHT22;65080;50.908;6.916;2023-04-03T09:30:46;8.40;47.60
76263;DHT22;65080;50.908;6.916;2023-04-03T09:33:15;8.50;47.50
76263;DHT22;65080;50.908;6.916;2023-04-03T09:35:44;8.50;46.80
76263;DHT22;65080;50.908;6.916;2023-04-03T09:38:17;8.50;46.60
76263;DHT22;65080;50.908;6.916;2023-04-03T09:40:47;8.60;46.50
76263;DHT22;65080;50.908;6.916;2023-04-03T09:43:37;8.60;46.40
76263;DHT22;65080;50.908;6.916;2023-04-03T09:46:25;8.70;46.20
76263;DHT22;65080;50.908;6.916;2023-04-03T09:48:58;8.70;46.00
76263;DHT22;65080;50.908;6.916;2023-04-03T09:51:36;8.70;46.10
76263;DHT22;65080;50.908;6.916;2023-04-03T09:54:30;8.80;45.90
76263;DHT22;65080;50.908;6.916;2023-04-03T09:57:01;8.80;45.00
76263;DHT22;65080;50.908;6.916;2023-04-03T09:59:31;8.80;45.10
76263;DHT22;65080;50.908;6.916;2023-04-03T10:02:02;8.80;45.00
76263;DHT22;65080;50.908;6.916;2023-04-03T10:04:38;8.90;44.90
76263;DHT22;65080;50.908;6.916;2023-04-03T10:07:32;9.00;44.60
76263;DHT22;65080;50.908;6.916;2023-04-03T10:10:03;9.10;44.10
76263;DHT22;65080;50.908;6.916;2023-04-03T10:12:31;9.10;44.20
76263;DHT22;65080;50.908;6.916;2023-04-03T10:15:01;9.10;43.80
76263;DHT22;65080;50.908;6.916;2023-04-03T10:17:39;9.10;43.20
76263;DHT22;65080;50.908;6.916;2023-04-03T10:20:26;9.20;42.80
76263;DHT22;65080;50.908;6.916;2023-04-03T10:23:01;9.30;42.70
76263;DHT22;65080;50.908;6.916;2023-04-03T10:25:34;9.40;42.70
76263;DHT22;65080;50.908;6.916;2023-04-03T10:28:09;9.40;42.30
76263;DHT22;65080;50.908;6.916;2023-04-03T10:30:48;9.40;41.80
76263;DHT22;65080;50.908;6.916;2023-04-03T10:33:26;9.40;41.20
76263;DHT22;65080;50.908;6.916;2023-04-03T10:36:06;9.40;41.10
76263;DHT22;65080;50.908;6.916;2023-04-03T10:38:44;9.40;40.60
76263;DHT22;65080;50.908;6.916;2023-04-03T10:41:20;9.50;40.40
76263;DHT22;65080;50.908;6.916;2023-04-03T10:43:59;9.50;40.20
76263;DHT22;65080;50.908;6.916;2023-04-03T10:46:35;9.60;39.80
76263;DHT22;65080;50.908;6.916;2023-04-03T10:49:23;9.60;39.70
76263;DHT22;65080;50.908;6.916;2023-04-03T10:51:59;9.60;39.30
76263;DHT22;65080;50.908;6.916;2023-04-03T10:54:35;9.60;39.30
76263;DHT22;65080;50.908;6.916;2023-04-03T10:57:06;9.60;39.20
76263;DHT22;65080;50.908;6.916;2023-04-03T10:59:43;9.70;39.00
76263;DHT22;65080;50.908;6.916;2023-04-03T11:02:22;9.70;38.50
76263;DHT22;65080;50.908;6.916;2023-04-03T11:04:56;9.80;38.30
76263;DHT22;65080;50.908;6.916;2023-04-03T11:07:29;9.80;38.20
76263;DHT22;65080;50.908;6.916;2023-04-03T11:10:02;9.80;38.40
76263;DHT22;65080;50.908;6.916;2023-04-03T11:12:38;9.90;38.40
76263;DHT22;65080;50.908;6.916;2023-04-03T11:15:11;10.00;37.50
76263;DHT22;65080;50.908;6.916;2023-04-03T11:17:47;10.10;37.50
76263;DHT22;65080;50.908;6.916;2023-04-03T11:20:20;10.20;37.00
76263;DHT22;65080;50.908;6.916;2023-04-03T11:22:58;10.30;36.60
76263;DHT22;65080;50.908;6.916;2023-04-03T11:25:31;10.30;36.40
76263;DHT22;65080;50.908;6.916;2023-04-03T11:28:02;10.40;35.80
76263;DHT22;65080;50.908;6.916;2023-04-03T11:30:33;10.40;35.70
76263;DHT22;65080;50.908;6.916;2023-04-03T11:35:57;10.50;35.20
76263;DHT22;65080;50.908;6.916;2023-04-03T11:38:31;10.50;35.20
76263;DHT22;65080;50.908;6.916;2023-04-03T11:41:05;10.60;35.00
76263;DHT22;65080;50.908;6.916;2023-04-03T11:43:41;10.60;34.70
76263;DHT22;65080;50.908;6.916;2023-04-03T11:46:09;10.70;34.40
76263;DHT22;65080;50.908;6.916;2023-04-03T11:48:57;10.70;34.50
76263;DHT22;65080;50.908;6.916;2023-04-03T11:51:39;10.60;33.90
76263;DHT22;65080;50.908;6.916;2023-04-03T11:57:45;10.60;34.20
76263;DHT22;65080;50.908;6.916;2023-04-03T12:03:56;10.60;34.10
76263;DHT22;65080;50.908;6.916;2023-04-03T12:07:02;10.70;34.30
76263;DHT22;65080;50.908;6.916;2023-04-03T12:13:00;10.70;34.10
76263;DHT22;65080;50.908;6.916;2023-04-03T12:15:54;10.70;34.50
76263;DHT22;65080;50.908;6.916;2023-04-03T12:18:58;10.70;33.90
76263;DHT22;65080;50.908;6.916;2023-04-03T12:24:36;10.70;33.60
76263;DHT22;65080;50.908;6.916;2023-04-03T12:27:28;10.70;33.80
76263;DHT22;65080;50.908;6.916;2023-04-03T12:33:20;10.80;33.30
76263;DHT22;65080;50.908;6.916;2023-04-03T12:36:02;11.00;32.80
76263;DHT22;65080;50.908;6.916;2023-04-03T12:38:58;11.00;32.90
76263;DHT22;65080;50.908;6.916;2023-04-03T12:41:37;11.00;32.90
76263;DHT22;65080;50.908;6.916;2023-04-03T12:44:22;11.10;33.20
76263;DHT22;65080;50.908;6.916;2023-04-03T12:46:55;11.20;32.80
76263;DHT22;65080;50.908;6.916;2023-04-03T12:49:35;11.20;32.70
76263;DHT22;65080;50.908;6.916;2023-04-03T12:52:05;11.20;32.50
76263;DHT22;65080;50.908;6.916;2023-04-03T12:54:41;11.20;32.70
76263;DHT22;65080;50.908;6.916;2023-04-03T12:57:16;11.20;32.60
76263;DHT22;65080;50.908;6.916;2023-04-03T12:59:45;11.20;32.40
76263;DHT22;65080;50.908;6.916;2023-04-03T13:02:21;11.30;32.60
76263;DHT22;65080;50.908;6.916;2023-04-03T13:04:51;11.40;32.50
76263;DHT22;65080;50.908;6.916;2023-04-03T13:07:25;11.50;32.70
76263;DHT22;65080;50.908;6.916;2023-04-03T13:10:00;11.60;32.40
76263;DHT22;65080;50.908;6.916;2023-04-03T13:12:30;11.70;32.20
76263;DHT22;65080;50.908;6.916;2023-04-03T13:15:00;11.80;32.80
76263;DHT22;65080;50.908;6.916;2023-04-03T13:17:31;11.90;32.10
76263;DHT22;65080;50.908;6.916;2023-04-03T13:20:11;12.00;32.00
76263;DHT22;65080;50.908;6.916;2023-04-03T13:22:46;12.20;31.70
76263;DHT22;65080;50.908;6.916;2023-04-03T13:25:16;12.40;32.10
76263;DHT22;65080;50.908;6.916;2023-04-03T13:27:46;12.70;32.20
76263;DHT22;65080;50.908;6.916;2023-04-03T13:30:21;13.10;32.20
76263;DHT22;65080;50.908;6.916;2023-04-03T13:32:49;13.50;31.90
76263;DHT22;65080;50.908;6.916;2023-04-03T13:35:33;13.80;31.70
76263;DHT22;65080;50.908;6.916;2023-04-03T13:38:07;14.20;30.90
76263;DHT22;65080;50.908;6.916;2023-04-03T13:40:50;14.60;31.30
76263;DHT22;65080;50.908;6.916;2023-04-03T13:43:24;15.00;31.30
76263;DHT22;65080;50.908;6.916;2023-04-03T13:45:55;15.50;30.70
76263;DHT22;65080;50.908;6.916;2023-04-03T13:48:26;15.70;30.00
76263;DHT22;65080;50.908;6.916;2023-04-03T13:50:58;16.00;29.90
76263;DHT22;65080;50.908;6.916;2023-04-03T13:53:29;16.20;29.60
76263;DHT22;65080;50.908;6.916;2023-04-03T13:56:04;16.50;29.30
76263;DHT22;65080;50.908;6.916;2023-04-03T13:58:35;16.70;29.20
76263;DHT22;65080;50.908;6.916;2023-04-03T14:01:10;16.80;29.10
76263;DHT22;65080;50.908;6.916;2023-04-03T14:03:43;17.00;28.60
76263;DHT22;65080;50.908;6.916;2023-04-03T14:06:14;16.90;28.50
76263;DHT22;65080;50.908;6.916;2023-04-03T14:08:44;17.00;28.40
76263;DHT22;65080;50.908;6.916;2023-04-03T14:11:14;17.20;28.30
76263;DHT22;65080;50.908;6.916;2023-04-03T14:13:45;17.30;28.20
76263;DHT22;65080;50.908;6.916;2023-04-03T14:16:15;17.50;28.30
76263;DHT22;65080;50.908;6.916;2023-04-03T14:18:44;17.60;28.00
76263;DHT22;65080;50.908;6.916;2023-04-03T14:21:14;17.90;28.00
76263;DHT22;65080;50.908;6.916;2023-04-03T14:23:43;18.00;27.80
76263;DHT22;65080;50.908;6.916;2023-04-03T14:26:12;18.10;27.60
76263;DHT22;65080;50.908;6.916;2023-04-03T14:28:40;18.20;27.30
76263;DHT22;65080;50.908;6.916;2023-04-03T14:31:13;18.30;27.30
76263;DHT22;65080;50.908;6.916;2023-04-03T14:33:43;18.40;27.10
76263;DHT22;65080;50.908;6.916;2023-04-03T14:36:13;18.30;26.90
76263;DHT22;65080;50.908;6.916;2023-04-03T14:38:43;18.30;27.00
76263;DHT22;65080;50.908;6.916;2023-04-03T14:41:12;18.50;27.00
76263;DHT22;65080;50.908;6.916;2023-04-03T14:43:44;18.50;26.70
76263;DHT22;65080;50.908;6.916;2023-04-03T14:46:16;18.60;26.80
76263;DHT22;65080;50.908;6.916;2023-04-03T14:48:45;18.70;27.30
76263;DHT22;65080;50.908;6.916;2023-04-03T14:51:14;18.90;26.60
76263;DHT22;65080;50.908;6.916;2023-04-03T14:53:43;18.90;26.40
76263;DHT22;65080;50.908;6.916;2023-04-03T14:56:14;19.00;26.30
76263;DHT22;65080;50.908;6.916;2023-04-03T14:58:43;19.10;26.20
76263;DHT22;65080;50.908;6.916;2023-04-03T15:01:18;19.10;26.20
76263;DHT22;65080;50.908;6.916;2023-04-03T15:03:46;19.10;26.10
76263;DHT22;65080;50.908;6.916;2023-04-03T15:06:15;19.20;26.20
76263;DHT22;65080;50.908;6.916;2023-04-03T15:08:45;19.00;26.20
76263;DHT22;65080;50.908;6.916;2023-04-03T15:11:14;19.10;26.40
76263;DHT22;65080;50.908;6.916;2023-04-03T15:13:43;19.10;26.20
76263;DHT22;65080;50.908;6.916;2023-04-03T15:16:17;19.30;26.10
76263;DHT22;65080;50.908;6.916;2023-04-03T15:18:47;19.50;25.70
76263;DHT22;65080;50.908;6.916;2023-04-03T15:21:15;19.60;25.70
76263;DHT22;65080;50.908;6.916;2023-04-03T15:23:43;19.70;25.80
76263;DHT22;65080;50.908;6.916;2023-04-03T15:26:12;19.80;25.60
76263;DHT22;65080;50.908;6.916;2023-04-03T15:28:41;20.00;25.50
76263;DHT22;65080;50.908;6.916;2023-04-03T15:31:10;19.90;25.00
76263;DHT22;65080;50.908;6.916;2023-04-03T15:33:40;20.00;25.10
76263;DHT22;65080;50.908;6.916;2023-04-03T15:36:09;19.90;25.10
76263;DHT22;65080;50.908;6.916;2023-04-03T15:38:57;20.00;25.20
76263;DHT22;65080;50.908;6.916;2023-04-03T15:41:25;19.90;25.30
76263;DHT22;65080;50.908;6.916;2023-04-03T15:43:53;20.00;25.20
76263;DHT22;65080;50.908;6.916;2023-04-03T15:46:22;19.90;25.10
76263;DHT22;65080;50.908;6.916;2023-04-03T15:48:53;19.70;25.00
76263;DHT22;65080;50.908;6.916;2023-04-03T15:51:21;19.60;25.10
76263;DHT22;65080;50.908;6.916;2023-04-03T15:53:50;19.50;24.90
76263;DHT22;65080;50.908;6.916;2023-04-03T15:56:18;19.50;24.80
76263;DHT22;65080;50.908;6.916;2023-04-03T15:58:47;19.40;24.70
76263;DHT22;65080;50.908;6.916;2023-04-03T16:01:15;19.40;24.80
76263;DHT22;65080;50.908;6.916;2023-04-03T16:03:44;19.30;24.60
76263;DHT22;65080;50.908;6.916;2023-04-03T16:06:15;19.30;24.60
76263;DHT22;65080;50.908;6.916;2023-04-03T16:08:46;19.30;24.50
76263;DHT22;65080;50.908;6.916;2023-04-03T16:11:15;19.20;24.50
76263;DHT22;65080;50.908;6.916;2023-04-03T16:13:43;19.10;24.50
76263;DHT22;65080;50.908;6.916;2023-04-03T16:16:12;19.00;24.60
76263;DHT22;65080;50.908;6.916;2023-04-03T16:18:40;19.00;24.60
76263;DHT22;65080;50.908;6.916;2023-04-03T16:21:14;18.90;24.60
76263;DHT22;65080;50.908;6.916;2023-04-03T16:23:43;18.70;24.60
76263;DHT22;65080;50.908;6.916;2023-04-03T16:26:12;18.30;24.70
76263;DHT22;65080;50.908;6.916;2023-04-03T16:28:40;17.80;24.80